createdAt,value
2022-10-25T00:01:36.232Z,88.05
2022-10-25T00:04:03.100Z,88.21
2022-10-25T00:06:29.838Z,87.96
2022-10-25T00:08:56.485Z,88.14
2022-10-25T00:11:24.817Z,87.96
2022-10-25T00:13:52.752Z,87.99
2022-10-25T00:16:22.883Z,87.69
2022-10-25T00:18:49.487Z,87.66
2022-10-25T00:21:16.086Z,87.95
2022-10-25T00:23:42.669Z,87.52
2022-10-25T00:26:09.740Z,87.67
2022-10-25T00:28:36.465Z,87.82
2022-10-25T00:31:04.397Z,87.68
2022-10-25T00:33:34.685Z,87.70
2022-10-25T00:36:18.415Z,87.94
2022-10-25T00:38:46.398Z,87.98
2022-10-25T00:41:14.519Z,88.05
2022-10-25T00:43:43.125Z,88.48
2022-10-25T00:46:19.710Z,87.55
2022-10-25T00:49:02.496Z,87.52
2022-10-25T00:51:33.243Z,87.29
2022-10-25T00:53:59.897Z,87.21
2022-10-25T00:56:28.259Z,87.14
2022-10-25T00:58:58.368Z,87.26
2022-10-25T01:01:25.130Z,87.18
2022-10-25T01:03:52.697Z,87.54
2022-10-25T01:06:25.399Z,87.55
2022-10-25T01:09:12.112Z,86.61
2022-10-25T01:11:38.892Z,86.91
2022-10-25T01:14:06.298Z,86.91
2022-10-25T01:16:57.254Z,86.87
2022-10-25T01:20:01.226Z,86.09
2022-10-25T01:22:48.136Z,86.16
2022-10-25T01:25:55.671Z,86.33
2022-10-25T01:28:52.363Z,86.70
2022-10-25T01:31:39.684Z,87.20
2022-10-25T01:34:25.891Z,87.65
2022-10-25T01:37:07.573Z,88.10
2022-10-25T01:39:36.786Z,88.93
2022-10-25T01:42:09.361Z,90.45
2022-10-25T01:44:56.126Z,90.88
2022-10-25T01:47:41.480Z,90.42
2022-10-25T01:50:19.429Z,90.37
2022-10-25T01:52:46.114Z,90.43
2022-10-25T01:55:12.935Z,91.04
2022-10-25T01:58:08.047Z,90.99
2022-10-25T02:01:10.423Z,91.23
2022-10-25T02:03:40.162Z,90.92
2022-10-25T02:06:27.016Z,90.89
2022-10-25T02:09:03.538Z,91.15
2022-10-25T02:11:31.287Z,90.76
2022-10-25T02:14:25.841Z,90.64
2022-10-25T02:17:09.293Z,89.76
2022-10-25T02:19:47.508Z,89.76
2022-10-25T02:22:14.082Z,88.93
2022-10-25T02:24:41.633Z,88.49
2022-10-25T02:27:08.215Z,88.54
2022-10-25T02:29:34.972Z,88.75
2022-10-25T02:32:02.663Z,88.71
2022-10-25T02:34:29.275Z,88.79
2022-10-25T02:36:55.926Z,89.16
2022-10-25T02:39:26.401Z,88.92
2022-10-25T02:41:55.647Z,89.33
2022-10-25T02:44:22.273Z,89.46
2022-10-25T02:46:48.823Z,88.92
2022-10-25T02:49:15.426Z,88.84
2022-10-25T02:51:42.055Z,89.08
2022-10-25T02:54:08.684Z,89.22
2022-10-25T02:56:36.357Z,88.78
2022-10-25T02:59:03.080Z,88.66
2022-10-25T03:01:29.912Z,89.05
2022-10-25T03:03:56.566Z,88.76
2022-10-25T03:06:23.150Z,88.74
2022-10-25T03:08:49.792Z,88.29
2022-10-25T03:11:16.632Z,88.32
2022-10-25T03:13:43.454Z,88.25
2022-10-25T03:16:10.209Z,88.17
2022-10-25T03:18:37.032Z,88.38
2022-10-25T03:21:03.895Z,88.03
2022-10-25T03:23:30.683Z,87.97
2022-10-25T03:25:58.132Z,88.43
2022-10-25T03:28:24.950Z,88.51
2022-10-25T03:30:51.525Z,88.52
2022-10-25T03:33:18.117Z,88.67
2022-10-25T03:35:44.799Z,88.87
2022-10-25T03:38:11.405Z,88.54
2022-10-25T03:40:38.001Z,88.76
2022-10-25T03:43:04.589Z,88.88
2022-10-25T03:45:31.200Z,88.52
2022-10-25T03:47:57.935Z,88.40
2022-10-25T03:50:24.508Z,88.16
2022-10-25T03:52:51.112Z,87.64
2022-10-25T03:55:17.785Z,88.25
2022-10-25T03:57:44.868Z,88.24
2022-10-25T04:00:12.313Z,87.79
2022-10-25T04:02:39.030Z,87.87
2022-10-25T04:05:05.913Z,87.62
2022-10-25T04:07:32.460Z,87.24
2022-10-25T04:09:59.031Z,87.24
2022-10-25T04:12:25.644Z,87.30
2022-10-25T04:14:52.209Z,87.49
2022-10-25T04:17:18.980Z,87.36
2022-10-25T04:19:45.718Z,87.64
2022-10-25T04:22:12.524Z,87.29
2022-10-25T04:24:39.308Z,87.59
2022-10-25T04:27:05.876Z,87.60
2022-10-25T04:29:32.440Z,87.22
2022-10-25T04:31:59.151Z,86.79
2022-10-25T04:34:25.892Z,87.20
2022-10-25T04:36:52.471Z,86.88
2022-10-25T04:39:19.160Z,86.49
2022-10-25T04:41:45.886Z,86.65
2022-10-25T04:44:12.508Z,86.97
2022-10-25T04:46:39.066Z,86.89
2022-10-25T04:49:05.865Z,86.76
2022-10-25T04:51:32.574Z,87.07
2022-10-25T04:53:59.205Z,87.76
2022-10-25T04:56:25.939Z,87.95
2022-10-25T04:58:52.589Z,87.86
2022-10-25T05:01:19.524Z,88.15
2022-10-25T05:03:46.228Z,88.41
2022-10-25T05:06:17.561Z,88.56
2022-10-25T05:08:45.575Z,88.35
2022-10-25T05:11:12.825Z,88.91
2022-10-25T05:13:39.805Z,88.53
2022-10-25T05:16:07.050Z,89.00
2022-10-25T05:18:34.322Z,89.15
2022-10-25T05:21:04.251Z,89.05
2022-10-25T05:23:31.024Z,88.58
2022-10-25T05:26:02.397Z,88.35
2022-10-25T05:28:29.178Z,89.32
2022-10-25T05:30:55.848Z,89.24
2022-10-25T05:33:22.580Z,89.33
2022-10-25T05:35:49.144Z,89.01
2022-10-25T05:38:15.850Z,89.19
2022-10-25T05:40:42.497Z,89.18
2022-10-25T05:43:09.238Z,89.48
2022-10-25T05:45:35.915Z,88.85
2022-10-25T05:48:02.707Z,89.50
2022-10-25T05:50:29.310Z,89.46
2022-10-25T05:52:55.966Z,89.32
2022-10-25T05:55:22.530Z,89.46
2022-10-25T05:57:52.188Z,89.13
2022-10-25T06:00:18.785Z,89.30
2022-10-25T06:02:45.717Z,89.56
2022-10-25T06:05:12.706Z,89.42
2022-10-25T06:07:39.519Z,89.08
2022-10-25T06:10:10.396Z,89.45
2022-10-25T06:12:37.357Z,88.88
2022-10-25T06:15:04.209Z,89.15
2022-10-25T06:17:30.820Z,89.06
2022-10-25T06:19:57.574Z,88.41
2022-10-25T06:22:24.240Z,88.70
2022-10-25T06:24:50.806Z,88.65
2022-10-25T06:27:17.367Z,88.63
2022-10-25T06:29:44.008Z,89.21
2022-10-25T06:32:10.643Z,89.39
2022-10-25T06:34:37.271Z,89.32
2022-10-25T06:37:03.878Z,88.95
2022-10-25T06:39:30.500Z,89.00
2022-10-25T06:41:57.203Z,89.13
2022-10-25T06:44:23.825Z,89.11
2022-10-25T06:47:15.778Z,89.28
2022-10-25T06:49:37.335Z,89.20
2022-10-25T06:52:03.894Z,89.17
2022-10-25T06:54:30.469Z,89.03
2022-10-25T06:56:57.970Z,88.83
2022-10-25T06:59:24.774Z,89.12
2022-10-25T07:01:51.551Z,88.08
2022-10-25T07:04:18.256Z,87.64
2022-10-25T07:06:44.889Z,87.17
2022-10-25T07:09:12.550Z,86.73
2022-10-25T07:11:39.335Z,86.66
2022-10-25T07:14:06.020Z,86.69
2022-10-25T07:16:32.759Z,86.33
2022-10-25T07:19:00.072Z,86.22
2022-10-25T07:21:26.892Z,86.19
2022-10-25T07:23:53.525Z,86.24
2022-10-25T07:26:22.109Z,86.40
2022-10-25T07:28:49.792Z,86.61
2022-10-25T07:31:18.605Z,86.63
2022-10-25T07:33:45.158Z,86.69
2022-10-25T07:36:12.255Z,83.41
2022-10-25T07:38:39.044Z,82.53
2022-10-25T07:41:05.848Z,78.87
2022-10-25T07:43:32.415Z,75.19
2022-10-25T07:45:59.051Z,67.76
2022-10-25T07:48:25.754Z,64.08
2022-10-25T07:50:52.342Z,59.17
2022-10-25T07:53:19.111Z,56.37
2022-10-25T07:55:52.450Z,52.62
2022-10-25T07:58:19.148Z,47.47
2022-10-25T08:00:45.759Z,46.62
2022-10-25T08:03:13.264Z,47.69
2022-10-25T08:05:40.130Z,48.37
2022-10-25T08:08:06.760Z,49.33
2022-10-25T08:10:33.735Z,51.23
2022-10-25T08:13:00.292Z,52.88
2022-10-25T08:15:26.897Z,53.99
2022-10-25T08:18:00.235Z,55.23
2022-10-25T08:20:43.326Z,55.79
2022-10-25T08:23:13.640Z,56.27
2022-10-25T08:25:40.448Z,57.55
2022-10-25T08:28:07.168Z,58.52
2022-10-25T08:30:33.806Z,59.62
2022-10-25T08:33:00.478Z,60.43
2022-10-25T08:35:27.035Z,60.92
2022-10-25T08:37:53.577Z,61.28
2022-10-25T08:40:25.157Z,61.06
2022-10-25T08:43:19.468Z,61.89
2022-10-25T08:45:57.460Z,62.87
2022-10-25T08:48:33.189Z,63.92
2022-10-25T08:51:04.551Z,63.81
2022-10-25T08:53:40.642Z,62.70
2022-10-25T08:56:16.586Z,61.25
2022-10-25T08:58:58.259Z,62.15
2022-10-25T09:01:36.965Z,61.43
2022-10-25T09:04:03.872Z,62.45
2022-10-25T09:06:43.750Z,61.78
2022-10-25T09:09:25.363Z,61.03
2022-10-25T09:11:58.132Z,61.41
2022-10-25T09:14:47.577Z,60.32
2022-10-25T09:17:21.741Z,59.91
2022-10-25T09:20:04.391Z,58.94
2022-10-25T09:22:35.519Z,58.82
2022-10-25T09:25:57.611Z,59.71
2022-10-25T09:28:42.400Z,60.67
2022-10-25T09:31:11.246Z,61.29
2022-10-25T09:33:37.805Z,61.75
2022-10-25T09:36:04.547Z,62.21
2022-10-25T09:38:47.809Z,62.95
2022-10-25T09:41:24.415Z,63.42
2022-10-25T09:43:50.921Z,63.72
2022-10-25T09:46:21.003Z,64.17
2022-10-25T09:48:53.414Z,64.28
2022-10-25T09:51:34.120Z,64.97
2022-10-25T09:54:01.586Z,65.98
2022-10-25T09:56:32.529Z,66.34
2022-10-25T09:59:04.400Z,66.92
2022-10-25T10:01:31.217Z,67.46
2022-10-25T10:04:05.083Z,67.80
2022-10-25T10:06:36.630Z,68.19
2022-10-25T10:09:05.403Z,69.04
2022-10-25T10:11:32.444Z,69.93
2022-10-25T10:14:09.157Z,70.08
2022-10-25T10:16:41.772Z,69.26
2022-10-25T10:19:16.383Z,66.85
2022-10-25T10:21:52.706Z,66.80
2022-10-25T10:24:24.927Z,66.23
2022-10-25T10:27:12.167Z,66.30
2022-10-25T10:29:47.443Z,66.62
2022-10-25T10:32:26.170Z,66.15
2022-10-25T10:34:55.170Z,66.84
2022-10-25T10:37:23.021Z,67.99
2022-10-25T10:40:02.465Z,65.62
2022-10-25T10:42:38.052Z,66.13
2022-10-25T10:45:15.417Z,66.74
2022-10-25T10:47:45.948Z,66.51
2022-10-25T10:50:22.634Z,67.33
2022-10-25T10:53:09.304Z,66.74
2022-10-25T10:55:36.850Z,66.56
2022-10-25T10:58:14.675Z,65.09
2022-10-25T11:00:41.746Z,63.96
2022-10-25T11:03:31.415Z,65.30
2022-10-25T11:05:59.421Z,64.88
2022-10-25T11:08:26.120Z,65.38
2022-10-25T11:10:52.698Z,65.11
2022-10-25T11:13:19.957Z,63.31
2022-10-25T11:15:58.634Z,64.23
2022-10-25T11:18:35.188Z,61.87
2022-10-25T11:21:26.062Z,59.67
2022-10-25T11:23:59.423Z,60.58
2022-10-25T11:26:26.114Z,61.81
2022-10-25T11:28:58.757Z,62.31
2022-10-25T11:31:33.270Z,61.96
2022-10-25T11:34:04.624Z,60.82
2022-10-25T11:37:10.697Z,61.10
2022-10-25T11:39:59.259Z,61.99
2022-10-25T11:42:30.221Z,62.64
2022-10-25T11:45:15.295Z,62.67
2022-10-25T11:47:50.924Z,62.97
2022-10-25T11:50:20.742Z,62.55
2022-10-25T11:53:24.356Z,62.55
2022-10-25T11:56:07.063Z,61.61
2022-10-25T11:58:50.688Z,61.34
2022-10-25T12:01:35.586Z,61.58
2022-10-25T12:04:29.748Z,62.64
2022-10-25T12:07:03.651Z,62.14
2022-10-25T12:09:42.326Z,61.94
2022-10-25T12:12:14.894Z,61.50
2022-10-25T12:14:44.706Z,62.06
2022-10-25T12:17:31.289Z,63.16
2022-10-25T12:19:59.655Z,64.00
2022-10-25T12:22:28.884Z,64.54
2022-10-25T12:25:19.887Z,62.81
2022-10-25T12:27:46.480Z,60.86
2022-10-25T12:30:17.463Z,61.21
2022-10-25T12:32:54.015Z,60.46
2022-10-25T12:35:27.043Z,60.89
2022-10-25T12:37:59.089Z,60.80
2022-10-25T12:40:26.120Z,61.64
2022-10-25T12:43:25.916Z,62.51
2022-10-25T12:46:17.626Z,62.41
2022-10-25T12:48:55.438Z,62.17
2022-10-25T12:51:38.233Z,59.57
2022-10-25T12:54:14.748Z,59.89
2022-10-25T12:56:45.108Z,60.39
2022-10-25T12:59:30.282Z,61.42
2022-10-25T13:02:03.006Z,61.21
2022-10-25T13:04:35.611Z,60.98
2022-10-25T13:07:03.649Z,59.88
2022-10-25T13:09:31.504Z,60.62
2022-10-25T13:11:59.965Z,60.02
2022-10-25T13:14:30.930Z,59.41
2022-10-25T13:17:16.428Z,59.40
2022-10-25T13:19:55.322Z,58.77
2022-10-25T13:22:46.686Z,59.13
2022-10-25T13:25:13.339Z,58.57
2022-10-25T13:27:42.413Z,58.59
2022-10-25T13:30:13.130Z,58.17
2022-10-25T13:32:43.707Z,58.36
2022-10-25T13:35:19.527Z,58.92
2022-10-25T13:37:50.648Z,59.96
2022-10-25T13:40:20.452Z,60.00
2022-10-25T13:42:47.784Z,60.50
2022-10-25T13:45:41.747Z,60.82
2022-10-25T13:48:14.325Z,61.21
2022-10-25T13:50:52.932Z,60.93
2022-10-25T13:53:26.187Z,61.40
2022-10-25T13:56:05.615Z,61.22
2022-10-25T13:58:32.552Z,62.21
2022-10-25T14:01:18.117Z,62.49
2022-10-25T14:03:54.368Z,62.89
2022-10-25T14:06:34.247Z,61.45
2022-10-25T14:09:23.846Z,61.42
2022-10-25T14:12:14.636Z,62.15
2022-10-25T14:14:48.290Z,61.71
2022-10-25T14:17:23.274Z,61.65
2022-10-25T14:19:51.237Z,62.10
2022-10-25T14:22:20.787Z,62.56
2022-10-25T14:24:49.271Z,62.39
2022-10-25T14:27:26.311Z,62.88
2022-10-25T14:29:52.931Z,62.40
2022-10-25T14:32:20.737Z,62.90
2022-10-25T14:34:51.104Z,62.52
2022-10-25T14:37:17.701Z,61.86
2022-10-25T14:39:53.775Z,61.91
2022-10-25T14:42:20.599Z,62.21
2022-10-25T14:44:49.102Z,61.16
2022-10-25T14:47:29.457Z,60.76
2022-10-25T14:49:57.435Z,61.17
2022-10-25T14:52:24.969Z,61.51
2022-10-25T14:54:56.245Z,62.07
2022-10-25T14:57:24.202Z,62.11
2022-10-25T14:59:51.226Z,62.59
2022-10-25T15:02:34.620Z,62.78
2022-10-25T15:05:02.004Z,62.97
2022-10-25T15:07:30.928Z,63.50
2022-10-25T15:09:58.702Z,63.77
2022-10-25T15:12:29.221Z,64.37
2022-10-25T15:14:57.419Z,64.86
2022-10-25T15:17:30.886Z,65.18
2022-10-25T15:20:16.322Z,65.38
2022-10-25T15:22:45.367Z,65.49
2022-10-25T15:25:24.225Z,65.62
2022-10-25T15:27:51.631Z,66.02
2022-10-25T15:30:37.853Z,66.53
2022-10-25T15:33:08.863Z,66.91
2022-10-25T15:35:41.399Z,66.83
2022-10-25T15:38:10.076Z,67.06
2022-10-25T15:40:38.336Z,67.25
2022-10-25T15:43:05.384Z,67.95
2022-10-25T15:45:32.417Z,68.00
2022-10-25T15:47:59.050Z,68.44
2022-10-25T15:50:26.129Z,68.85
2022-10-25T15:52:53.890Z,68.88
2022-10-25T15:55:22.263Z,69.20
2022-10-25T15:57:48.952Z,69.24
2022-10-25T16:00:25.703Z,69.28
2022-10-25T16:02:54.745Z,70.41
2022-10-25T16:05:30.351Z,70.88
2022-10-25T16:07:56.961Z,70.94
2022-10-25T16:10:24.466Z,71.03
2022-10-25T16:13:01.854Z,71.17
2022-10-25T16:15:28.487Z,71.10
2022-10-25T16:17:55.056Z,71.02
2022-10-25T16:20:23.907Z,71.07
2022-10-25T16:23:22.658Z,71.12
2022-10-25T16:25:49.275Z,71.23
2022-10-25T16:28:16.511Z,71.54
2022-10-25T16:30:43.906Z,72.22
2022-10-25T16:33:10.605Z,72.88
2022-10-25T16:35:37.270Z,73.15
2022-10-25T16:38:06.698Z,73.45
2022-10-25T16:40:33.478Z,74.57
2022-10-25T16:43:00.829Z,74.27
2022-10-25T16:45:32.192Z,75.45
2022-10-25T16:51:45.758Z,75.01
2022-10-25T16:54:12.667Z,74.82
2022-10-25T16:56:39.716Z,74.99
2022-10-25T16:59:06.299Z,75.07
2022-10-25T17:01:34.524Z,75.42
2022-10-25T17:04:03.454Z,75.50
2022-10-25T17:06:45.654Z,75.98
2022-10-25T17:09:12.414Z,75.60
2022-10-25T17:11:39.116Z,76.26
2022-10-25T17:14:05.774Z,76.67
2022-10-25T17:16:32.379Z,76.13
2022-10-25T17:18:58.961Z,75.57
2022-10-25T17:21:25.558Z,75.75
2022-10-25T17:23:52.139Z,75.47
2022-10-25T17:26:19.022Z,75.93
2022-10-25T17:28:45.591Z,76.16
2022-10-25T17:31:13.243Z,75.91
2022-10-25T17:33:40.673Z,75.84
2022-10-25T17:36:14.132Z,75.69
2022-10-25T17:38:40.995Z,75.65
2022-10-25T17:41:07.750Z,76.31
2022-10-25T17:43:35.567Z,77.03
2022-10-25T17:46:09.976Z,77.06
2022-10-25T17:48:36.554Z,77.54
2022-10-25T17:51:08.003Z,77.31
2022-10-25T17:53:34.639Z,77.00
2022-10-25T17:56:17.602Z,77.56
2022-10-25T17:58:46.280Z,77.77
2022-10-25T18:01:14.074Z,78.50
2022-10-25T18:03:40.760Z,78.27
2022-10-25T18:06:09.216Z,78.45
2022-10-25T18:08:38.765Z,78.41
2022-10-25T18:11:10.105Z,80.26
2022-10-25T18:13:38.511Z,80.43
2022-10-25T18:18:33.122Z,80.93
2022-10-25T18:21:10.295Z,81.02
2022-10-25T18:23:37.077Z,81.08
2022-10-25T18:26:05.000Z,81.32
2022-10-25T18:28:35.276Z,81.25
2022-10-25T18:31:03.044Z,81.65
2022-10-25T18:33:30.487Z,81.85
2022-10-25T18:35:58.518Z,81.74
2022-10-25T18:38:25.135Z,81.97
2022-10-25T18:40:51.886Z,81.61
2022-10-25T18:43:18.468Z,81.32
2022-10-25T18:45:45.101Z,81.16
2022-10-25T18:48:12.031Z,81.24
2022-10-25T18:50:53.118Z,81.76
2022-10-25T18:53:19.877Z,81.25
2022-10-25T18:55:52.796Z,80.86
2022-10-25T18:58:19.506Z,80.98
2022-10-25T19:00:46.470Z,81.30
2022-10-25T19:03:14.183Z,81.15
2022-10-25T19:05:40.864Z,80.94
2022-10-25T19:08:08.246Z,80.86
2022-10-25T19:10:41.654Z,80.72
2022-10-25T19:13:09.372Z,80.60
2022-10-25T19:15:36.035Z,80.40
2022-10-25T19:18:02.747Z,80.65
2022-10-25T19:20:29.363Z,80.54
2022-10-25T19:22:58.847Z,80.64
2022-10-25T19:25:28.812Z,80.45
2022-10-25T19:27:55.795Z,80.21
2022-10-25T19:30:22.898Z,79.94
2022-10-25T19:32:49.770Z,79.85
2022-10-25T19:35:16.869Z,79.26
2022-10-25T19:37:43.441Z,78.78
2022-10-25T19:40:10.451Z,78.50
2022-10-25T19:42:37.294Z,78.40
2022-10-25T19:45:04.739Z,79.23
2022-10-25T19:47:31.415Z,79.01
2022-10-25T19:49:58.042Z,78.54
2022-10-25T19:52:24.820Z,79.18
2022-10-25T19:54:51.508Z,79.25
2022-10-25T19:57:18.106Z,79.31
2022-10-25T19:59:44.742Z,79.35
2022-10-25T20:02:11.534Z,79.95
2022-10-25T20:04:38.225Z,79.82
2022-10-25T20:07:05.019Z,80.13
2022-10-25T20:09:31.681Z,80.06
2022-10-25T20:11:58.252Z,80.30
2022-10-25T20:14:24.900Z,80.29
2022-10-25T20:16:51.484Z,80.19
2022-10-25T20:19:18.170Z,79.79
2022-10-25T20:21:44.894Z,79.84
2022-10-25T20:24:11.706Z,79.79
2022-10-25T20:26:39.954Z,80.27
2022-10-25T20:29:20.371Z,80.12
2022-10-25T20:31:53.132Z,79.84
2022-10-25T20:34:19.932Z,80.09
2022-10-25T20:36:47.724Z,80.03
2022-10-25T20:39:14.828Z,80.45
2022-10-25T20:41:41.540Z,80.61
2022-10-25T20:44:08.845Z,80.30
2022-10-25T20:46:35.826Z,80.16
2022-10-25T20:49:03.578Z,80.33
2022-10-25T20:51:30.246Z,80.29
2022-10-25T20:53:57.100Z,80.73
2022-10-25T20:56:24.003Z,80.96
2022-10-25T20:58:51.271Z,80.39
2022-10-25T21:01:17.968Z,81.52
2022-10-25T21:03:44.901Z,80.69
2022-10-25T21:06:12.953Z,79.79
2022-10-25T21:08:39.621Z,80.47
2022-10-25T21:11:08.039Z,81.02
2022-10-25T21:13:35.237Z,81.17
2022-10-25T21:16:20.098Z,82.08
2022-10-25T21:18:46.719Z,81.68
2022-10-25T21:21:17.999Z,81.65
2022-10-25T21:23:46.262Z,81.31
2022-10-25T21:26:12.895Z,81.13
2022-10-25T21:28:40.354Z,81.45
2022-10-25T21:31:11.721Z,81.25
2022-10-25T21:33:38.637Z,82.24
2022-10-25T21:36:07.047Z,82.47
2022-10-25T21:38:33.908Z,82.36
2022-10-25T21:41:13.921Z,82.46
2022-10-25T21:43:45.053Z,82.91
2022-10-25T21:46:12.066Z,82.68
2022-10-25T21:48:38.763Z,82.82
2022-10-25T21:51:05.522Z,83.25
2022-10-25T21:53:32.173Z,83.25
2022-10-25T21:56:31.296Z,82.98
2022-10-25T21:58:58.805Z,83.45
2022-10-25T22:01:27.256Z,83.43
2022-10-25T22:03:54.032Z,83.00
2022-10-25T22:06:22.742Z,82.94
2022-10-25T22:08:49.698Z,82.99
2022-10-25T22:11:20.811Z,83.88
2022-10-25T22:13:47.482Z,83.91
2022-10-25T22:16:18.170Z,83.82
2022-10-25T22:18:57.679Z,84.18
2022-10-25T22:21:24.842Z,83.87
2022-10-25T22:23:51.428Z,84.17
2022-10-25T22:26:19.637Z,83.82
2022-10-25T22:28:46.365Z,83.83
2022-10-25T22:31:14.848Z,83.70
2022-10-25T22:33:41.750Z,83.99
2022-10-25T22:36:08.501Z,83.75
2022-10-25T22:38:35.426Z,83.49
2022-10-25T22:41:06.421Z,83.91
2022-10-25T22:43:36.351Z,83.70
2022-10-25T22:46:04.258Z,83.91
2022-10-25T22:48:35.736Z,83.31
2022-10-25T22:51:02.354Z,83.65
2022-10-25T22:53:29.214Z,84.18
2022-10-25T22:56:00.285Z,83.97
2022-10-25T22:58:27.851Z,83.27
2022-10-25T23:01:06.011Z,83.64
2022-10-25T23:03:38.512Z,83.46
2022-10-25T23:06:06.207Z,83.94
2022-10-25T23:08:32.838Z,83.04
2022-10-25T23:11:16.229Z,83.09
2022-10-25T23:13:42.825Z,82.88
2022-10-25T23:16:10.002Z,83.00
2022-10-25T23:18:37.072Z,82.45
2022-10-25T23:21:03.959Z,82.96
2022-10-25T23:23:33.967Z,83.49
2022-10-25T23:26:00.943Z,83.74
2022-10-25T23:28:30.328Z,83.50
2022-10-25T23:30:57.767Z,83.82
2022-10-25T23:33:24.538Z,83.58
2022-10-25T23:35:51.203Z,83.70
2022-10-25T23:38:17.861Z,83.54
2022-10-25T23:40:46.878Z,83.53
2022-10-25T23:43:13.620Z,83.19
2022-10-25T23:45:42.025Z,83.33
2022-10-25T23:48:08.620Z,84.22
2022-10-25T23:50:35.200Z,83.74
2022-10-25T23:53:01.772Z,83.78
2022-10-25T23:55:28.343Z,83.47
2022-10-25T23:57:58.444Z,83.46
